sensor_id;sensor_type;location;lat;lon;timestamp;temperature;humidity
20773;DHT22;10546;50.674;4.616;2022-10-17T05:33:14;17.60;99.90
20773;DHT22;10546;50.674;4.616;2022-10-17T05:35:40;17.50;99.90
20773;DHT22;10546;50.674;4.616;2022-10-17T05:38:06;17.60;99.90
20773;DHT22;10546;50.674;4.616;2022-10-17T05:40:32;17.60;99.90
20773;DHT22;10546;50.674;4.616;2022-10-17T05:42:57;17.60;99.90
20773;DHT22;10546;50.674;4.616;2022-10-17T05:45:23;17.60;99.90
20773;DHT22;10546;50.674;4.616;2022-10-17T05:47:48;17.60;99.90
20773;DHT22;10546;50.674;4.616;2022-10-17T05:50:14;17.60;99.90
20773;DHT22;10546;50.674;4.616;2022-10-17T05:52:40;17.70;99.90
20773;DHT22;10546;50.674;4.616;2022-10-17T05:55:06;17.70;99.90
20773;DHT22;10546;50.674;4.616;2022-10-17T05:57:32;17.60;99.90
20773;DHT22;10546;50.674;4.616;2022-10-17T05:59:58;17.60;99.90
20773;DHT22;10546;50.674;4.616;2022-10-17T06:02:23;17.70;99.90
20773;DHT22;10546;50.674;4.616;2022-10-17T06:04:49;17.70;99.90
20773;DHT22;10546;50.674;4.616;2022-10-17T06:07:15;17.70;99.90
20773;DHT22;10546;50.674;4.616;2022-10-17T06:09:41;17.70;99.90
20773;DHT22;10546;50.674;4.616;2022-10-17T06:12:07;17.70;99.90
20773;DHT22;10546;50.674;4.616;2022-10-17T06:14:33;17.80;99.90
20773;DHT22;10546;50.674;4.616;2022-10-17T06:16:59;17.90;99.90
20773;DHT22;10546;50.674;4.616;2022-10-17T06:19:25;17.90;99.90
20773;DHT22;10546;50.674;4.616;2022-10-17T06:21:51;17.90;99.90
20773;DHT22;10546;50.674;4.616;2022-10-17T06:24:16;17.80;99.90
20773;DHT22;10546;50.674;4.616;2022-10-17T06:26:42;17.80;99.90
20773;DHT22;10546;50.674;4.616;2022-10-17T06:29:08;18.00;99.90
20773;DHT22;10546;50.674;4.616;2022-10-17T06:31:34;17.90;99.90
20773;DHT22;10546;50.674;4.616;2022-10-17T06:33:59;17.90;99.90
20773;DHT22;10546;50.674;4.616;2022-10-17T06:36:25;17.90;99.90
20773;DHT22;10546;50.674;4.616;2022-10-17T06:38:50;17.90;99.90
20773;DHT22;10546;50.674;4.616;2022-10-17T06:41:17;17.90;99.90
20773;DHT22;10546;50.674;4.616;2022-10-17T06:43:44;18.00;99.90
20773;DHT22;10546;50.674;4.616;2022-10-17T06:46:14;18.00;99.90
20773;DHT22;10546;50.674;4.616;2022-10-17T06:48:40;18.20;99.90
20773;DHT22;10546;50.674;4.616;2022-10-17T06:51:06;18.30;99.90
20773;DHT22;10546;50.674;4.616;2022-10-17T06:53:34;18.40;99.90
20773;DHT22;10546;50.674;4.616;2022-10-17T06:56:00;18.50;99.90
20773;DHT22;10546;50.674;4.616;2022-10-17T06:58:29;18.50;99.90
20773;DHT22;10546;50.674;4.616;2022-10-17T07:01:08;18.50;99.90
20773;DHT22;10546;50.674;4.616;2022-10-17T07:03:35;18.60;99.90
20773;DHT22;10546;50.674;4.616;2022-10-17T07:06:00;18.70;99.90
20773;DHT22;10546;50.674;4.616;2022-10-17T07:08:26;18.80;99.90
20773;DHT22;10546;50.674;4.616;2022-10-17T07:10:52;18.70;99.90
20773;DHT22;10546;50.674;4.616;2022-10-17T07:13:18;18.70;99.90
20773;DHT22;10546;50.674;4.616;2022-10-17T07:15:44;18.60;99.90
20773;DHT22;10546;50.674;4.616;2022-10-17T07:18:10;18.60;99.90
20773;DHT22;10546;50.674;4.616;2022-10-17T07:20:36;18.60;99.90
20773;DHT22;10546;50.674;4.616;2022-10-17T07:23:02;18.60;99.90
20773;DHT22;10546;50.674;4.616;2022-10-17T07:25:27;18.60;99.90
20773;DHT22;10546;50.674;4.616;2022-10-17T07:27:53;18.60;99.90
20773;DHT22;10546;50.674;4.616;2022-10-17T07:30:19;18.60;99.90
20773;DHT22;10546;50.674;4.616;2022-10-17T07:32:45;18.70;99.90
20773;DHT22;10546;50.674;4.616;2022-10-17T07:35:12;18.80;99.90
20773;DHT22;10546;50.674;4.616;2022-10-17T07:37:38;18.80;99.90
20773;DHT22;10546;50.674;4.616;2022-10-17T07:40:05;18.90;99.90
20773;DHT22;10546;50.674;4.616;2022-10-17T07:42:32;18.80;99.90
20773;DHT22;10546;50.674;4.616;2022-10-17T07:44:58;18.70;99.90
20773;DHT22;10546;50.674;4.616;2022-10-17T07:47:24;18.80;99.90
20773;DHT22;10546;50.674;4.616;2022-10-17T07:49:50;18.90;99.90
20773;DHT22;10546;50.674;4.616;2022-10-17T07:52:16;18.80;99.90
20773;DHT22;10546;50.674;4.616;2022-10-17T07:54:42;18.80;99.90
20773;DHT22;10546;50.674;4.616;2022-10-17T07:57:08;18.70;99.90
20773;DHT22;10546;50.674;4.616;2022-10-17T07:59:34;18.80;99.90
20773;DHT22;10546;50.674;4.616;2022-10-17T08:02:01;18.90;99.90
20773;DHT22;10546;50.674;4.616;2022-10-17T08:04:27;19.00;99.90
20773;DHT22;10546;50.674;4.616;2022-10-17T08:06:53;18.90;99.90
20773;DHT22;10546;50.674;4.616;2022-10-17T08:09:19;19.00;99.90
20773;DHT22;10546;50.674;4.616;2022-10-17T08:11:45;18.90;99.90
20773;DHT22;10546;50.674;4.616;2022-10-17T08:14:11;19.00;99.90
20773;DHT22;10546;50.674;4.616;2022-10-17T08:16:38;19.00;99.90
20773;DHT22;10546;50.674;4.616;2022-10-17T08:19:03;19.00;99.90
20773;DHT22;10546;50.674;4.616;2022-10-17T08:21:29;19.10;99.90
20773;DHT22;10546;50.674;4.616;2022-10-17T08:23:55;18.90;99.90
20773;DHT22;10546;50.674;4.616;2022-10-17T08:26:21;18.80;99.90
20773;DHT22;10546;50.674;4.616;2022-10-17T08:28:47;18.70;99.90
20773;DHT22;10546;50.674;4.616;2022-10-17T08:31:15;18.70;99.90
20773;DHT22;10546;50.674;4.616;2022-10-17T08:33:43;18.60;99.90
20773;DHT22;10546;50.674;4.616;2022-10-17T08:36:12;18.70;99.90
20773;DHT22;10546;50.674;4.616;2022-10-17T08:38:38;18.70;99.90
20773;DHT22;10546;50.674;4.616;2022-10-17T08:41:13;18.60;99.90
20773;DHT22;10546;50.674;4.616;2022-10-17T08:43:50;18.50;99.90
20773;DHT22;10546;50.674;4.616;2022-10-17T08:46:21;18.50;99.90
20773;DHT22;10546;50.674;4.616;2022-10-17T08:48:48;18.60;99.90
20773;DHT22;10546;50.674;4.616;2022-10-17T08:51:18;18.80;99.90
20773;DHT22;10546;50.674;4.616;2022-10-17T08:53:56;19.00;99.90
20773;DHT22;10546;50.674;4.616;2022-10-17T08:56:45;19.10;99.90
20773;DHT22;10546;50.674;4.616;2022-10-17T08:59:27;19.20;99.90
20773;DHT22;10546;50.674;4.616;2022-10-17T09:01:59;19.20;99.90
20773;DHT22;10546;50.674;4.616;2022-10-17T09:10:25;19.40;99.90
20773;DHT22;10546;50.674;4.616;2022-10-17T09:18:31;19.00;99.90
20773;DHT22;10546;50.674;4.616;2022-10-17T09:21:24;19.00;99.90
20773;DHT22;10546;50.674;4.616;2022-10-17T09:24:00;18.90;99.90
20773;DHT22;10546;50.674;4.616;2022-10-17T09:26:27;18.90;99.90
20773;DHT22;10546;50.674;4.616;2022-10-17T09:28:55;18.80;99.90
20773;DHT22;10546;50.674;4.616;2022-10-17T09:31:29;18.70;99.90
20773;DHT22;10546;50.674;4.616;2022-10-17T09:34:00;18.80;99.90
20773;DHT22;10546;50.674;4.616;2022-10-17T09:36:37;18.80;99.90
20773;DHT22;10546;50.674;4.616;2022-10-17T09:39:13;18.80;99.90
20773;DHT22;10546;50.674;4.616;2022-10-17T09:41:43;18.70;99.90
20773;DHT22;10546;50.674;4.616;2022-10-17T09:44:24;18.80;99.90
20773;DHT22;10546;50.674;4.616;2022-10-17T09:49:24;18.80;99.90
20773;DHT22;10546;50.674;4.616;2022-10-17T09:51:52;18.80;99.90
20773;DHT22;10546;50.674;4.616;2022-10-17T09:54:24;18.90;99.90
20773;DHT22;10546;50.674;4.616;2022-10-17T09:57:03;18.90;99.90
20773;DHT22;10546;50.674;4.616;2022-10-17T09:59:35;18.90;99.90
20773;DHT22;10546;50.674;4.616;2022-10-17T10:05:04;19.00;99.90
20773;DHT22;10546;50.674;4.616;2022-10-17T10:07:34;19.10;99.90
20773;DHT22;10546;50.674;4.616;2022-10-17T10:10:02;19.10;99.90
20773;DHT22;10546;50.674;4.616;2022-10-17T10:12:35;19.10;99.90
20773;DHT22;10546;50.674;4.616;2022-10-17T10:15:00;19.20;99.90
20773;DHT22;10546;50.674;4.616;2022-10-17T10:17:38;19.10;99.90
20773;DHT22;10546;50.674;4.616;2022-10-17T10:20:30;19.00;99.90
20773;DHT22;10546;50.674;4.616;2022-10-17T10:25:31;19.20;99.90
20773;DHT22;10546;50.674;4.616;2022-10-17T10:27:57;19.20;99.90
20773;DHT22;10546;50.674;4.616;2022-10-17T10:30:29;19.40;99.90
20773;DHT22;10546;50.674;4.616;2022-10-17T10:32:56;19.40;99.90
20773;DHT22;10546;50.674;4.616;2022-10-17T10:37:56;19.30;99.90
20773;DHT22;10546;50.674;4.616;2022-10-17T10:40:26;19.40;99.90
20773;DHT22;10546;50.674;4.616;2022-10-17T10:42:55;19.40;99.90
20773;DHT22;10546;50.674;4.616;2022-10-17T10:48:01;19.30;99.90
20773;DHT22;10546;50.674;4.616;2022-10-17T10:50:42;19.40;99.90
20773;DHT22;10546;50.674;4.616;2022-10-17T11:01:30;19.20;99.90
20773;DHT22;10546;50.674;4.616;2022-10-17T11:06:35;19.20;99.90
20773;DHT22;10546;50.674;4.616;2022-10-17T11:09:48;19.20;99.90
20773;DHT22;10546;50.674;4.616;2022-10-17T11:12:35;19.20;99.90
20773;DHT22;10546;50.674;4.616;2022-10-17T11:15:24;19.30;99.90
20773;DHT22;10546;50.674;4.616;2022-10-17T11:18:03;19.20;99.90
20773;DHT22;10546;50.674;4.616;2022-10-17T11:20:44;19.20;99.90
20773;DHT22;10546;50.674;4.616;2022-10-17T11:23:22;19.20;99.90
20773;DHT22;10546;50.674;4.616;2022-10-17T11:25:52;19.30;99.90
20773;DHT22;10546;50.674;4.616;2022-10-17T11:28:21;19.30;99.90
20773;DHT22;10546;50.674;4.616;2022-10-17T11:33:49;19.30;99.90
20773;DHT22;10546;50.674;4.616;2022-10-17T11:36:16;19.30;99.90
20773;DHT22;10546;50.674;4.616;2022-10-17T11:41:40;19.40;99.90
20773;DHT22;10546;50.674;4.616;2022-10-17T11:50:36;19.50;99.90
20773;DHT22;10546;50.674;4.616;2022-10-17T11:53:14;19.30;99.90
20773;DHT22;10546;50.674;4.616;2022-10-17T11:55:41;19.30;99.90
20773;DHT22;10546;50.674;4.616;2022-10-17T11:58:44;19.20;99.90
20773;DHT22;10546;50.674;4.616;2022-10-17T12:01:37;19.10;99.90
20773;DHT22;10546;50.674;4.616;2022-10-17T12:04:39;19.10;99.90
20773;DHT22;10546;50.674;4.616;2022-10-17T12:07:18;19.10;99.90
20773;DHT22;10546;50.674;4.616;2022-10-17T12:09:56;19.10;99.90
20773;DHT22;10546;50.674;4.616;2022-10-17T12:12:34;19.00;99.90
20773;DHT22;10546;50.674;4.616;2022-10-17T12:17:43;19.10;99.90
20773;DHT22;10546;50.674;4.616;2022-10-17T12:22:54;18.90;99.90
20773;DHT22;10546;50.674;4.616;2022-10-17T12:25:27;18.90;99.90
20773;DHT22;10546;50.674;4.616;2022-10-17T12:28:16;19.00;99.90
20773;DHT22;10546;50.674;4.616;2022-10-17T12:30:51;18.90;99.90
20773;DHT22;10546;50.674;4.616;2022-10-17T12:33:20;18.90;99.90
20773;DHT22;10546;50.674;4.616;2022-10-17T12:35:51;18.90;99.90
20773;DHT22;10546;50.674;4.616;2022-10-17T12:38:36;18.90;99.90
20773;DHT22;10546;50.674;4.616;2022-10-17T12:41:03;18.90;99.90
20773;DHT22;10546;50.674;4.616;2022-10-17T12:45:57;19.00;99.90
20773;DHT22;10546;50.674;4.616;2022-10-17T12:56:08;19.00;99.90
20773;DHT22;10546;50.674;4.616;2022-10-17T12:58:34;19.00;99.90
20773;DHT22;10546;50.674;4.616;2022-10-17T13:01:01;19.00;99.90
20773;DHT22;10546;50.674;4.616;2022-10-17T13:03:31;19.00;99.90
20773;DHT22;10546;50.674;4.616;2022-10-17T13:06:03;19.00;99.90
20773;DHT22;10546;50.674;4.616;2022-10-17T13:08:40;19.20;99.90
20773;DHT22;10546;50.674;4.616;2022-10-17T13:11:08;19.20;99.90
20773;DHT22;10546;50.674;4.616;2022-10-17T13:13:51;19.10;99.90
20773;DHT22;10546;50.674;4.616;2022-10-17T13:18:53;19.00;99.90
20773;DHT22;10546;50.674;4.616;2022-10-17T13:21:19;19.00;99.90
20773;DHT22;10546;50.674;4.616;2022-10-17T13:23:45;19.10;99.90
20773;DHT22;10546;50.674;4.616;2022-10-17T13:26:19;19.20;99.90
20773;DHT22;10546;50.674;4.616;2022-10-17T13:31:30;19.20;99.90
20773;DHT22;10546;50.674;4.616;2022-10-17T13:33:58;19.30;99.90
20773;DHT22;10546;50.674;4.616;2022-10-17T13:36:25;19.20;99.90
20773;DHT22;10546;50.674;4.616;2022-10-17T13:38:51;19.20;99.90
20773;DHT22;10546;50.674;4.616;2022-10-17T13:41:27;19.30;99.90
20773;DHT22;10546;50.674;4.616;2022-10-17T13:43:54;19.30;99.90
20773;DHT22;10546;50.674;4.616;2022-10-17T13:46:28;19.20;99.90
20773;DHT22;10546;50.674;4.616;2022-10-17T13:48:56;19.20;99.90
20773;DHT22;10546;50.674;4.616;2022-10-17T13:51:24;19.30;99.90
20773;DHT22;10546;50.674;4.616;2022-10-17T13:53:50;19.20;99.90
20773;DHT22;10546;50.674;4.616;2022-10-17T13:58:43;19.20;99.90
20773;DHT22;10546;50.674;4.616;2022-10-17T14:01:11;19.30;99.90
20773;DHT22;10546;50.674;4.616;2022-10-17T14:03:37;19.20;99.90
20773;DHT22;10546;50.674;4.616;2022-10-17T14:06:21;19.20;99.90
20773;DHT22;10546;50.674;4.616;2022-10-17T14:13:51;19.20;99.90
20773;DHT22;10546;50.674;4.616;2022-10-17T14:16:18;19.20;99.90
20773;DHT22;10546;50.674;4.616;2022-10-17T14:18:47;19.10;99.90
20773;DHT22;10546;50.674;4.616;2022-10-17T14:21:19;19.10;99.90
20773;DHT22;10546;50.674;4.616;2022-10-17T14:23:46;19.10;99.90
20773;DHT22;10546;50.674;4.616;2022-10-17T14:26:22;19.20;99.90
20773;DHT22;10546;50.674;4.616;2022-10-17T14:31:42;19.20;99.90
20773;DHT22;10546;50.674;4.616;2022-10-17T14:34:20;19.20;99.90
20773;DHT22;10546;50.674;4.616;2022-10-17T14:36:48;19.20;99.90
20773;DHT22;10546;50.674;4.616;2022-10-17T14:39:19;19.20;99.90
20773;DHT22;10546;50.674;4.616;2022-10-17T14:41:47;19.10;99.90
20773;DHT22;10546;50.674;4.616;2022-10-17T14:44:23;19.10;99.90
20773;DHT22;10546;50.674;4.616;2022-10-17T14:46:59;19.10;99.90
20773;DHT22;10546;50.674;4.616;2022-10-17T14:49:39;19.20;99.90
20773;DHT22;10546;50.674;4.616;2022-10-17T14:54:40;19.00;99.90
20773;DHT22;10546;50.674;4.616;2022-10-17T14:57:48;18.90;99.90
20773;DHT22;10546;50.674;4.616;2022-10-17T15:00:17;19.00;99.90
20773;DHT22;10546;50.674;4.616;2022-10-17T15:02:44;19.00;99.90
20773;DHT22;10546;50.674;4.616;2022-10-17T15:05:11;19.00;99.90
20773;DHT22;10546;50.674;4.616;2022-10-17T15:07:37;18.90;99.90
20773;DHT22;10546;50.674;4.616;2022-10-17T15:10:04;18.90;99.90
20773;DHT22;10546;50.674;4.616;2022-10-17T15:12:30;19.00;99.90
20773;DHT22;10546;50.674;4.616;2022-10-17T15:14:57;19.00;99.90
20773;DHT22;10546;50.674;4.616;2022-10-17T15:17:30;18.90;99.90
20773;DHT22;10546;50.674;4.616;2022-10-17T15:19:57;18.80;99.90
20773;DHT22;10546;50.674;4.616;2022-10-17T15:22:23;18.80;99.90
20773;DHT22;10546;50.674;4.616;2022-10-17T15:24:49;18.70;99.90
20773;DHT22;10546;50.674;4.616;2022-10-17T15:27:19;18.70;99.90
20773;DHT22;10546;50.674;4.616;2022-10-17T15:29:46;18.60;99.90
20773;DHT22;10546;50.674;4.616;2022-10-17T15:32:13;18.60;99.90
20773;DHT22;10546;50.674;4.616;2022-10-17T15:34:39;18.60;99.90
20773;DHT22;10546;50.674;4.616;2022-10-17T15:37:05;18.60;99.90
20773;DHT22;10546;50.674;4.616;2022-10-17T15:39:32;18.60;99.90
20773;DHT22;10546;50.674;4.616;2022-10-17T15:41:57;18.60;99.90
20773;DHT22;10546;50.674;4.616;2022-10-17T15:44:24;18.70;99.90
20773;DHT22;10546;50.674;4.616;2022-10-17T15:46:50;18.60;99.90
20773;DHT22;10546;50.674;4.616;2022-10-17T15:49:17;18.60;99.90
20773;DHT22;10546;50.674;4.616;2022-10-17T15:51:44;18.50;99.90
20773;DHT22;10546;50.674;4.616;2022-10-17T15:54:10;18.60;99.90
20773;DHT22;10546;50.674;4.616;2022-10-17T15:56:40;18.50;99.90
20773;DHT22;10546;50.674;4.616;2022-10-17T15:59:20;18.50;99.90
20773;DHT22;10546;50.674;4.616;2022-10-17T16:01:47;18.40;99.90
20773;DHT22;10546;50.674;4.616;2022-10-17T16:04:14;18.40;99.90
20773;DHT22;10546;50.674;4.616;2022-10-17T16:06:43;18.40;99.90
20773;DHT22;10546;50.674;4.616;2022-10-17T16:09:09;18.30;99.90
20773;DHT22;10546;50.674;4.616;2022-10-17T16:11:37;18.10;99.90
20773;DHT22;10546;50.674;4.616;2022-10-17T16:14:14;18.00;99.90
20773;DHT22;10546;50.674;4.616;2022-10-17T16:16:40;17.90;99.90
20773;DHT22;10546;50.674;4.616;2022-10-17T16:19:07;17.90;99.90
20773;DHT22;10546;50.674;4.616;2022-10-17T16:21:38;17.90;99.90
20773;DHT22;10546;50.674;4.616;2022-10-17T16:24:05;17.90;99.90
20773;DHT22;10546;50.674;4.616;2022-10-17T16:26:33;17.80;99.90
20773;DHT22;10546;50.674;4.616;2022-10-17T16:28:59;17.70;99.90
20773;DHT22;10546;50.674;4.616;2022-10-17T16:31:30;17.70;99.90
20773;DHT22;10546;50.674;4.616;2022-10-17T16:33:57;17.60;99.90
20773;DHT22;10546;50.674;4.616;2022-10-17T16:36:26;17.50;99.90
20773;DHT22;10546;50.674;4.616;2022-10-17T16:38:52;17.50;99.90
20773;DHT22;10546;50.674;4.616;2022-10-17T16:41:22;17.40;99.90
20773;DHT22;10546;50.674;4.616;2022-10-17T16:43:50;17.40;99.90
20773;DHT22;10546;50.674;4.616;2022-10-17T16:46:16;17.30;99.90
20773;DHT22;10546;50.674;4.616;2022-10-17T16:48:43;17.30;99.90
20773;DHT22;10546;50.674;4.616;2022-10-17T16:51:10;17.30;99.90
20773;DHT22;10546;50.674;4.616;2022-10-17T16:53:36;17.30;99.90
20773;DHT22;10546;50.674;4.616;2022-10-17T16:56:09;17.30;99.90
20773;DHT22;10546;50.674;4.616;2022-10-17T16:58:35;17.20;99.90
20773;DHT22;10546;50.674;4.616;2022-10-17T17:01:07;17.20;99.90
20773;DHT22;10546;50.674;4.616;2022-10-17T17:03:37;17.20;99.90
20773;DHT22;10546;50.674;4.616;2022-10-17T17:06:04;17.20;99.90
20773;DHT22;10546;50.674;4.616;2022-10-17T17:08:31;17.10;99.90
20773;DHT22;10546;50.674;4.616;2022-10-17T17:10:57;17.10;99.90
20773;DHT22;10546;50.674;4.616;2022-10-17T17:13:23;17.00;99.90
20773;DHT22;10546;50.674;4.616;2022-10-17T17:15:49;16.90;99.90
20773;DHT22;10546;50.674;4.616;2022-10-17T17:18:19;17.00;99.90
20773;DHT22;10546;50.674;4.616;2022-10-17T17:20:45;17.00;99.90
20773;DHT22;10546;50.674;4.616;2022-10-17T17:23:10;17.00;99.90
20773;DHT22;10546;50.674;4.616;2022-10-17T17:25:36;17.10;99.90
20773;DHT22;10546;50.674;4.616;2022-10-17T17:28:04;17.10;99.90
20773;DHT22;10546;50.674;4.616;2022-10-17T17:30:32;17.00;99.90
20773;DHT22;10546;50.674;4.616;2022-10-17T17:32:58;16.90;99.90
20773;DHT22;10546;50.674;4.616;2022-10-17T17:35:25;17.00;99.90
20773;DHT22;10546;50.674;4.616;2022-10-17T17:37:51;17.10;99.90
20773;DHT22;10546;50.674;4.616;2022-10-17T17:40:17;17.10;99.90
20773;DHT22;10546;50.674;4.616;2022-10-17T17:42:42;17.00;99.90
20773;DHT22;10546;50.674;4.616;2022-10-17T17:45:08;17.10;99.90
20773;DHT22;10546;50.674;4.616;2022-10-17T17:47:34;17.00;99.90
20773;DHT22;10546;50.674;4.616;2022-10-17T17:49:59;17.10;99.90
20773;DHT22;10546;50.674;4.616;2022-10-17T17:52:26;17.00;99.90
20773;DHT22;10546;50.674;4.616;2022-10-17T17:54:53;16.90;99.90
20773;DHT22;10546;50.674;4.616;2022-10-17T17:57:19;16.80;99.90
20773;DHT22;10546;50.674;4.616;2022-10-17T17:59:45;16.90;99.90
20773;DHT22;10546;50.674;4.616;2022-10-17T18:02:12;16.80;99.90
20773;DHT22;10546;50.674;4.616;2022-10-17T18:04:38;16.90;99.90
20773;DHT22;10546;50.674;4.616;2022-10-17T18:07:03;16.80;99.90
20773;DHT22;10546;50.674;4.616;2022-10-17T18:09:29;16.90;99.90
20773;DHT22;10546;50.674;4.616;2022-10-17T18:11:54;16.80;99.90
20773;DHT22;10546;50.674;4.616;2022-10-17T18:14:20;16.90;99.90
20773;DHT22;10546;50.674;4.616;2022-10-17T18:16:49;16.80;99.90
20773;DHT22;10546;50.674;4.616;2022-10-17T18:19:15;16.80;99.90
20773;DHT22;10546;50.674;4.616;2022-10-17T18:21:40;16.80;99.90
20773;DHT22;10546;50.674;4.616;2022-10-17T18:24:07;16.70;99.90
20773;DHT22;10546;50.674;4.616;2022-10-17T18:26:33;16.60;99.90
20773;DHT22;10546;50.674;4.616;2022-10-17T18:28:59;16.70;99.90
20773;DHT22;10546;50.674;4.616;2022-10-17T18:31:25;16.70;99.90
20773;DHT22;10546;50.674;4.616;2022-10-17T18:34:00;16.50;99.90
20773;DHT22;10546;50.674;4.616;2022-10-17T18:36:27;16.70;99.90
20773;DHT22;10546;50.674;4.616;2022-10-17T18:38:54;16.70;99.90
20773;DHT22;10546;50.674;4.616;2022-10-17T18:41:22;16.70;99.90
20773;DHT22;10546;50.674;4.616;2022-10-17T18:43:50;16.70;99.90
20773;DHT22;10546;50.674;4.616;2022-10-17T18:46:18;16.70;99.90
20773;DHT22;10546;50.674;4.616;2022-10-17T18:48:46;16.60;99.90
20773;DHT22;10546;50.674;4.616;2022-10-17T18:51:33;16.70;99.90
20773;DHT22;10546;50.674;4.616;2022-10-17T18:53:58;16.60;99.90
20773;DHT22;10546;50.674;4.616;2022-10-17T18:56:26;16.70;99.90
20773;DHT22;10546;50.674;4.616;2022-10-17T18:58:54;16.70;99.90
20773;DHT22;10546;50.674;4.616;2022-10-17T19:01:24;16.70;99.90
20773;DHT22;10546;50.674;4.616;2022-10-17T19:03:56;16.70;99.90
20773;DHT22;10546;50.674;4.616;2022-10-17T19:07:12;16.80;99.90
20773;DHT22;10546;50.674;4.616;2022-10-17T19:13:10;16.80;99.90
20773;DHT22;10546;50.674;4.616;2022-10-17T19:15:39;16.90;99.90
20773;DHT22;10546;50.674;4.616;2022-10-17T19:18:05;16.90;99.90
20773;DHT22;10546;50.674;4.616;2022-10-17T19:20:30;16.90;99.90
20773;DHT22;10546;50.674;4.616;2022-10-17T19:22:57;16.80;99.90
20773;DHT22;10546;50.674;4.616;2022-10-17T19:25:24;16.80;99.90
20773;DHT22;10546;50.674;4.616;2022-10-17T19:28:00;16.70;99.90
20773;DHT22;10546;50.674;4.616;2022-10-17T19:30:26;16.80;99.90
20773;DHT22;10546;50.674;4.616;2022-10-17T19:32:51;16.70;99.90
20773;DHT22;10546;50.674;4.616;2022-10-17T19:35:17;16.80;99.90
20773;DHT22;10546;50.674;4.616;2022-10-17T19:37:42;16.70;99.90
20773;DHT22;10546;50.674;4.616;2022-10-17T19:40:09;16.80;99.90
20773;DHT22;10546;50.674;4.616;2022-10-17T19:42:34;16.80;99.90
20773;DHT22;10546;50.674;4.616;2022-10-17T19:45:00;16.70;99.90
20773;DHT22;10546;50.674;4.616;2022-10-17T19:47:27;16.70;99.90
20773;DHT22;10546;50.674;4.616;2022-10-17T19:49:52;16.70;99.90
20773;DHT22;10546;50.674;4.616;2022-10-17T19:52:18;16.80;99.90
20773;DHT22;10546;50.674;4.616;2022-10-17T19:54:44;16.70;99.90
20773;DHT22;10546;50.674;4.616;2022-10-17T19:57:09;16.70;99.90
20773;DHT22;10546;50.674;4.616;2022-10-17T19:59:35;16.70;99.90
20773;DHT22;10546;50.674;4.616;2022-10-17T20:02:00;16.70;99.90
20773;DHT22;10546;50.674;4.616;2022-10-17T20:04:26;16.60;99.90
20773;DHT22;10546;50.674;4.616;2022-10-17T20:06:51;16.60;99.90
20773;DHT22;10546;50.674;4.616;2022-10-17T20:09:18;16.70;99.90
20773;DHT22;10546;50.674;4.616;2022-10-17T20:11:43;16.60;99.90
20773;DHT22;10546;50.674;4.616;2022-10-17T20:14:09;16.60;99.90
20773;DHT22;10546;50.674;4.616;2022-10-17T20:16:35;16.60;99.90
20773;DHT22;10546;50.674;4.616;2022-10-17T20:19:04;16.60;99.90
20773;DHT22;10546;50.674;4.616;2022-10-17T20:21:30;16.60;99.90
20773;DHT22;10546;50.674;4.616;2022-10-17T20:23:59;16.60;99.90
20773;DHT22;10546;50.674;4.616;2022-10-17T20:26:26;16.60;99.90
20773;DHT22;10546;50.674;4.616;2022-10-17T20:28:56;16.60;99.90
20773;DHT22;10546;50.674;4.616;2022-10-17T20:31:25;16.60;99.90
20773;DHT22;10546;50.674;4.616;2022-10-17T20:33:59;16.70;99.90
20773;DHT22;10546;50.674;4.616;2022-10-17T20:36:25;16.60;99.90
20773;DHT22;10546;50.674;4.616;2022-10-17T20:38:55;16.60;99.90
20773;DHT22;10546;50.674;4.616;2022-10-17T20:41:22;16.60;99.90
20773;DHT22;10546;50.674;4.616;2022-10-17T20:43:52;16.70;99.90
20773;DHT22;10546;50.674;4.616;2022-10-17T20:46:19;16.60;99.90
20773;DHT22;10546;50.674;4.616;2022-10-17T20:48:49;16.60;99.90
20773;DHT22;10546;50.674;4.616;2022-10-17T20:51:14;16.70;99.90
20773;DHT22;10546;50.674;4.616;2022-10-17T20:53:40;16.70;99.90
20773;DHT22;10546;50.674;4.616;2022-10-17T20:56:08;16.70;99.90
20773;DHT22;10546;50.674;4.616;2022-10-17T20:58:35;16.70;99.90
20773;DHT22;10546;50.674;4.616;2022-10-17T21:01:09;16.70;99.90
20773;DHT22;10546;50.674;4.616;2022-10-17T21:03:36;16.70;99.90
20773;DHT22;10546;50.674;4.616;2022-10-17T21:06:02;16.70;99.90
20773;DHT22;10546;50.674;4.616;2022-10-17T21:08:28;16.70;99.90
20773;DHT22;10546;50.674;4.616;2022-10-17T21:10:54;16.60;99.90
20773;DHT22;10546;50.674;4.616;2022-10-17T21:13:19;16.60;99.90
20773;DHT22;10546;50.674;4.616;2022-10-17T21:15:45;16.70;99.90
20773;DHT22;10546;50.674;4.616;2022-10-17T21:18:11;16.70;99.90
20773;DHT22;10546;50.674;4.616;2022-10-17T21:20:36;16.70;99.90
20773;DHT22;10546;50.674;4.616;2022-10-17T21:23:02;16.60;99.90
20773;DHT22;10546;50.674;4.616;2022-10-17T21:25:27;16.60;99.90
20773;DHT22;10546;50.674;4.616;2022-10-17T21:27:53;16.60;99.90
20773;DHT22;10546;50.674;4.616;2022-10-17T21:30:18;16.70;99.90
20773;DHT22;10546;50.674;4.616;2022-10-17T21:32:45;16.70;99.90
20773;DHT22;10546;50.674;4.616;2022-10-17T21:35:11;16.60;99.90
20773;DHT22;10546;50.674;4.616;2022-10-17T21:37:36;16.70;99.90
20773;DHT22;10546;50.674;4.616;2022-10-17T21:40:03;16.70;99.90
20773;DHT22;10546;50.674;4.616;2022-10-17T21:42:29;16.70;99.90
20773;DHT22;10546;50.674;4.616;2022-10-17T21:44:55;16.70;99.90
20773;DHT22;10546;50.674;4.616;2022-10-17T21:47:21;16.70;99.90
20773;DHT22;10546;50.674;4.616;2022-10-17T21:49:47;16.60;99.90
20773;DHT22;10546;50.674;4.616;2022-10-17T21:52:13;16.70;99.90
20773;DHT22;10546;50.674;4.616;2022-10-17T21:54:38;16.70;99.90
20773;DHT22;10546;50.674;4.616;2022-10-17T21:57:04;16.70;99.90
20773;DHT22;10546;50.674;4.616;2022-10-17T21:59:29;16.60;99.90
20773;DHT22;10546;50.674;4.616;2022-10-17T22:01:56;16.70;99.90
20773;DHT22;10546;50.674;4.616;2022-10-17T22:04:21;16.60;99.90
20773;DHT22;10546;50.674;4.616;2022-10-17T22:06:48;16.70;99.90
20773;DHT22;10546;50.674;4.616;2022-10-17T22:09:21;16.60;99.90
20773;DHT22;10546;50.674;4.616;2022-10-17T22:11:53;16.60;99.90
20773;DHT22;10546;50.674;4.616;2022-10-17T22:14:20;16.60;99.90
20773;DHT22;10546;50.674;4.616;2022-10-17T22:16:47;16.60;99.90
20773;DHT22;10546;50.674;4.616;2022-10-17T22:19:16;16.60;99.90
20773;DHT22;10546;50.674;4.616;2022-10-17T22:21:42;16.70;99.90
20773;DHT22;10546;50.674;4.616;2022-10-17T22:24:10;16.70;99.90
20773;DHT22;10546;50.674;4.616;2022-10-17T22:26:36;16.80;99.90
20773;DHT22;10546;50.674;4.616;2022-10-17T22:29:03;16.70;99.90
20773;DHT22;10546;50.674;4.616;2022-10-17T22:31:29;16.70;99.90
20773;DHT22;10546;50.674;4.616;2022-10-17T22:33:55;16.70;99.90
20773;DHT22;10546;50.674;4.616;2022-10-17T22:36:21;16.70;99.90
20773;DHT22;10546;50.674;4.616;2022-10-17T22:38:46;16.70;99.90